createdAt,value
2023-10-10T00:00:25.912Z,93.68
2023-10-10T00:01:25.925Z,93.88
2023-10-10T00:02:26.501Z,93.78
2023-10-10T00:03:25.943Z,93.48
2023-10-10T00:04:25.846Z,93.27
2023-10-10T00:05:25.898Z,93.48
2023-10-10T00:06:25.870Z,93.88
2023-10-10T00:07:25.831Z,94.19
2023-10-10T00:08:25.885Z,94.09
2023-10-10T00:09:25.783Z,93.78
2023-10-10T00:10:25.813Z,93.38
2023-10-10T00:11:25.807Z,93.38
2023-10-10T00:12:25.768Z,93.18
2023-10-10T00:13:25.733Z,92.97
2023-10-10T00:14:25.776Z,92.97
2023-10-10T00:15:25.708Z,93.07
2023-10-10T00:16:25.746Z,92.97
2023-10-10T00:17:25.825Z,92.67
2023-10-10T00:18:25.665Z,92.47
2023-10-10T00:19:25.656Z,92.36
2023-10-10T00:20:25.675Z,92.16
2023-10-10T00:21:25.664Z,92.36
2023-10-10T00:22:25.636Z,92.36
2023-10-10T00:23:25.647Z,92.26
2023-10-10T00:24:25.624Z,92.06
2023-10-10T00:25:25.606Z,91.75
2023-10-10T00:26:25.616Z,91.46
2023-10-10T00:27:35.558Z,91.35
2023-10-10T00:28:25.522Z,91.66
2023-10-10T00:29:25.589Z,92.26
2023-10-10T00:30:25.498Z,92.16
2023-10-10T00:31:25.661Z,92.06
2023-10-10T00:32:25.578Z,91.96
2023-10-10T00:33:25.470Z,92.06
2023-10-10T00:34:25.451Z,92.16
2023-10-10T00:35:25.554Z,92.36
2023-10-10T00:36:25.442Z,92.47
2023-10-10T00:37:25.419Z,92.16
2023-10-10T00:38:25.458Z,91.86
2023-10-10T00:39:25.390Z,91.55
2023-10-10T00:40:25.389Z,91.46
2023-10-10T00:41:25.400Z,91.35
2023-10-10T00:42:25.344Z,90.84
2023-10-10T00:43:25.380Z,91.35
2023-10-10T00:44:25.402Z,91.35
2023-10-10T00:45:25.320Z,91.25
2023-10-10T00:46:25.312Z,91.05
2023-10-10T00:47:25.458Z,90.54
2023-10-10T00:48:25.305Z,90.64
2023-10-10T00:49:25.330Z,90.54
2023-10-10T00:50:25.331Z,90.54
2023-10-10T00:51:25.238Z,90.95
2023-10-10T00:52:25.243Z,91.46
2023-10-10T00:53:25.209Z,91.25
2023-10-10T00:54:25.307Z,90.84
2023-10-10T00:55:25.254Z,90.64
2023-10-10T00:56:25.244Z,90.95
2023-10-10T00:57:25.198Z,91.75
2023-10-10T00:58:25.154Z,91.35
2023-10-10T00:59:25.152Z,91.15
2023-10-10T01:00:25.112Z,91.25
2023-10-10T01:01:25.133Z,91.05
2023-10-10T01:02:25.194Z,90.75
2023-10-10T01:03:25.235Z,90.44
2023-10-10T01:04:25.070Z,89.94
2023-10-10T01:05:25.069Z,89.63
2023-10-10T01:06:25.041Z,89.32
2023-10-10T01:07:25.036Z,88.72
2023-10-10T01:08:25.032Z,88.82
2023-10-10T01:09:25.004Z,88.82
2023-10-10T01:10:24.993Z,88.42
2023-10-10T01:11:25.034Z,88.42
2023-10-10T01:12:24.972Z,88.21
2023-10-10T01:13:24.941Z,88.51
2023-10-10T01:14:24.960Z,88.82
2023-10-10T01:15:24.929Z,89.43
2023-10-10T01:16:24.929Z,89.43
2023-10-10T01:17:24.987Z,89.12
2023-10-10T01:18:24.953Z,89.02
2023-10-10T01:19:24.879Z,88.72
2023-10-10T01:20:24.966Z,89.94
2023-10-10T01:21:24.847Z,89.53
2023-10-10T01:22:24.850Z,89.12
2023-10-10T01:23:24.840Z,89.32
2023-10-10T01:24:24.800Z,89.43
2023-10-10T01:25:24.783Z,90.34
2023-10-10T01:26:24.843Z,91.25
2023-10-10T01:27:24.756Z,91.66
2023-10-10T01:28:25.019Z,91.86
2023-10-10T01:29:24.754Z,91.86
2023-10-10T01:30:24.720Z,91.55
2023-10-10T01:31:24.739Z,91.46
2023-10-10T01:32:24.759Z,91.66
2023-10-10T01:33:24.716Z,91.66
2023-10-10T01:34:24.671Z,91.75
2023-10-10T01:35:24.759Z,92.71
2023-10-10T01:36:24.642Z,93.22
2023-10-10T01:37:24.653Z,92.91
2023-10-10T01:38:24.649Z,92.41
2023-10-10T01:39:24.602Z,92.10
2023-10-10T01:40:24.602Z,91.90
2023-10-10T01:41:24.620Z,91.70
2023-10-10T01:42:24.556Z,91.50
2023-10-10T01:43:24.558Z,91.70
2023-10-10T01:44:24.737Z,91.70
2023-10-10T01:45:24.615Z,91.50
2023-10-10T01:46:24.552Z,90.99
2023-10-10T01:47:24.529Z,90.69
2023-10-10T01:48:24.588Z,90.48
2023-10-10T01:49:24.488Z,90.38
2023-10-10T01:50:24.495Z,90.28
2023-10-10T01:51:24.458Z,90.08
2023-10-10T01:52:24.423Z,90.08
2023-10-10T01:53:24.456Z,90.28
2023-10-10T01:54:24.413Z,90.58
2023-10-10T01:55:24.385Z,91.09
2023-10-10T01:56:24.409Z,91.19
2023-10-10T01:57:24.401Z,91.19
2023-10-10T01:58:24.352Z,90.89
2023-10-10T01:59:24.413Z,90.99
2023-10-10T02:00:24.360Z,91.50
2023-10-10T02:01:24.370Z,91.60
2023-10-10T02:02:24.361Z,91.50
2023-10-10T02:03:24.410Z,91.50
2023-10-10T02:04:24.268Z,91.50
2023-10-10T02:05:24.307Z,91.60
2023-10-10T02:06:24.259Z,91.50
2023-10-10T02:07:24.255Z,91.50
2023-10-10T02:08:24.248Z,91.50
2023-10-10T02:09:24.200Z,92.10
2023-10-10T02:10:24.185Z,92.21
2023-10-10T02:11:24.258Z,92.00
2023-10-10T02:12:24.177Z,91.80
2023-10-10T02:13:24.165Z,91.50
2023-10-10T02:14:24.162Z,91.70
2023-10-10T02:15:24.132Z,92.00
2023-10-10T02:16:24.118Z,93.42
2023-10-10T02:17:24.224Z,94.03
2023-10-10T02:18:24.118Z,94.43
2023-10-10T02:19:24.105Z,94.64
2023-10-10T02:20:24.065Z,94.74
2023-10-10T02:21:24.045Z,95.04
2023-10-10T02:22:24.085Z,95.14
2023-10-10T02:23:24.381Z,95.04
2023-10-10T02:24:24.003Z,94.94
2023-10-10T02:25:24.032Z,94.74
2023-10-10T02:26:24.053Z,94.54
2023-10-10T02:27:23.990Z,94.23
2023-10-10T02:28:23.943Z,94.03
2023-10-10T02:29:24.017Z,93.73
2023-10-10T02:30:23.931Z,94.03
2023-10-10T02:31:23.936Z,93.52
2023-10-10T02:32:23.945Z,93.62
2023-10-10T02:33:23.913Z,93.62
2023-10-10T02:34:23.874Z,94.03
2023-10-10T02:35:23.900Z,94.03
2023-10-10T02:36:23.854Z,94.03
2023-10-10T02:37:23.880Z,93.73
2023-10-10T02:38:23.921Z,93.42
2023-10-10T02:39:23.811Z,93.12
2023-10-10T02:40:23.815Z,93.12
2023-10-10T02:41:24.292Z,93.32
2023-10-10T02:42:23.770Z,93.42
2023-10-10T02:43:23.757Z,93.42
2023-10-10T02:44:23.802Z,93.32
2023-10-10T02:45:23.746Z,93.02
2023-10-10T02:46:23.713Z,93.26
2023-10-10T02:47:23.749Z,93.42
2023-10-10T02:48:23.698Z,93.42
2023-10-10T02:49:24.090Z,93.62
2023-10-10T02:50:23.686Z,93.93
2023-10-10T02:51:23.708Z,93.83
2023-10-10T02:52:23.620Z,93.62
2023-10-10T02:53:23.674Z,93.12
2023-10-10T02:54:23.612Z,92.71
2023-10-10T02:55:23.681Z,92.31
2023-10-10T02:56:23.621Z,92.31
2023-10-10T02:57:23.568Z,93.12
2023-10-10T02:58:23.555Z,93.22
2023-10-10T02:59:23.623Z,93.12
2023-10-10T03:00:23.544Z,93.42
2023-10-10T03:01:23.539Z,93.52
2023-10-10T03:02:23.549Z,93.73
2023-10-10T03:03:23.621Z,93.62
2023-10-10T03:04:23.575Z,93.42
2023-10-10T03:05:23.515Z,93.22
2023-10-10T03:06:23.454Z,92.91
2023-10-10T03:07:23.431Z,92.82
2023-10-10T03:08:23.449Z,92.71
2023-10-10T03:09:23.424Z,92.51
2023-10-10T03:10:23.423Z,92.82
2023-10-10T03:11:23.438Z,93.83
2023-10-10T03:12:23.362Z,94.84
2023-10-10T03:13:23.369Z,95.35
2023-10-10T03:14:23.394Z,95.55
2023-10-10T03:15:23.332Z,95.55
2023-10-10T03:16:23.413Z,95.55
2023-10-10T03:17:23.318Z,95.35
2023-10-10T03:18:23.340Z,95.04
2023-10-10T03:19:23.283Z,94.89
2023-10-10T03:20:23.296Z,94.68
2023-10-10T03:21:23.260Z,94.38
2023-10-10T03:22:23.249Z,94.27
2023-10-10T03:23:23.292Z,94.18
2023-10-10T03:24:23.209Z,94.18
2023-10-10T03:25:23.215Z,94.18
2023-10-10T03:26:23.226Z,94.07
2023-10-10T03:27:23.218Z,93.97
2023-10-10T03:28:23.158Z,93.46
2023-10-10T03:29:23.210Z,93.57
2023-10-10T03:30:23.124Z,93.87
2023-10-10T03:31:23.157Z,93.77
2023-10-10T03:32:23.157Z,94.18
2023-10-10T03:33:23.121Z,94.38
2023-10-10T03:34:23.082Z,94.18
2023-10-10T03:35:23.112Z,94.18
2023-10-10T03:36:23.065Z,93.97
2023-10-10T03:37:23.044Z,94.27
2023-10-10T03:38:23.022Z,94.48
2023-10-10T03:39:23.012Z,94.27
2023-10-10T03:40:22.988Z,94.58
2023-10-10T03:41:22.997Z,94.48
2023-10-10T03:42:22.971Z,94.38
2023-10-10T03:43:22.956Z,94.38
2023-10-10T03:44:22.971Z,94.07
2023-10-10T03:45:22.928Z,93.87
2023-10-10T03:46:22.934Z,93.67
2023-10-10T03:47:22.984Z,93.57
2023-10-10T03:48:22.906Z,93.26
2023-10-10T03:49:22.884Z,92.96
2023-10-10T03:50:22.940Z,92.76
2023-10-10T03:51:22.875Z,92.35
2023-10-10T03:52:22.865Z,92.25
2023-10-10T03:53:22.879Z,92.35
2023-10-10T03:54:22.801Z,92.55
2023-10-10T03:55:22.829Z,92.45
2023-10-10T03:56:23.558Z,92.35
2023-10-10T03:57:22.786Z,92.25
2023-10-10T03:58:22.751Z,92.25
2023-10-10T03:59:22.871Z,92.05
2023-10-10T04:00:22.824Z,92.65
2023-10-10T04:01:22.737Z,92.86
2023-10-10T04:02:22.718Z,92.76
2023-10-10T04:03:22.821Z,92.25
2023-10-10T04:04:22.733Z,92.86
2023-10-10T04:05:27.757Z,93.87
2023-10-10T04:06:23.651Z,93.22
2023-10-10T04:07:22.635Z,92.55
2023-10-10T04:08:22.671Z,92.25
2023-10-10T04:09:22.640Z,92.35
2023-10-10T04:10:22.589Z,92.41
2023-10-10T04:11:22.648Z,92.61
2023-10-10T04:12:22.576Z,92.71
2023-10-10T04:13:22.574Z,92.71
2023-10-10T04:14:22.585Z,92.51
2023-10-10T04:15:22.593Z,92.41
2023-10-10T04:16:22.557Z,92.10
2023-10-10T04:17:22.538Z,91.60
2023-10-10T04:18:22.515Z,91.39
2023-10-10T04:19:22.510Z,91.30
2023-10-10T04:20:22.478Z,91.60
2023-10-10T04:21:22.439Z,91.39
2023-10-10T04:22:22.439Z,91.19
2023-10-10T04:23:22.502Z,91.50
2023-10-10T04:24:22.428Z,91.30
2023-10-10T04:25:22.409Z,90.89
2023-10-10T04:26:22.388Z,90.22
2023-10-10T04:27:22.383Z,89.67
2023-10-10T04:28:22.357Z,89.51
2023-10-10T04:29:22.387Z,89.47
2023-10-10T04:30:22.321Z,89.47
2023-10-10T04:31:22.343Z,89.57
2023-10-10T04:32:22.345Z,89.98
2023-10-10T04:33:22.370Z,89.87
2023-10-10T04:34:22.282Z,89.06
2023-10-10T04:35:24.121Z,89.26
2023-10-10T04:36:22.249Z,89.57
2023-10-10T04:37:22.275Z,89.47
2023-10-10T04:38:22.297Z,88.96
2023-10-10T04:39:22.218Z,88.86
2023-10-10T04:40:22.196Z,88.76
2023-10-10T04:41:22.219Z,88.76
2023-10-10T04:42:22.173Z,88.56
2023-10-10T04:43:22.179Z,88.60
2023-10-10T04:44:22.166Z,88.66
2023-10-10T04:45:22.118Z,88.76
2023-10-10T04:46:22.202Z,88.29
2023-10-10T04:47:22.179Z,87.59
2023-10-10T04:48:22.110Z,87.69
2023-10-10T04:49:22.086Z,88.20
2023-10-10T04:50:22.085Z,88.49
2023-10-10T04:51:22.064Z,87.79
2023-10-10T04:52:22.041Z,87.79
2023-10-10T04:53:22.090Z,87.99
2023-10-10T04:54:22.013Z,88.40
2023-10-10T04:55:22.010Z,88.70
2023-10-10T04:56:22.048Z,88.60
2023-10-10T04:57:21.967Z,88.60
2023-10-10T04:58:21.972Z,88.60
2023-10-10T04:59:21.987Z,89.01
2023-10-10T05:00:21.942Z,89.21
2023-10-10T05:01:21.935Z,89.21
2023-10-10T05:02:21.973Z,89.61
2023-10-10T05:03:21.961Z,89.31
2023-10-10T05:04:21.940Z,89.31
2023-10-10T05:05:21.977Z,89.11
2023-10-10T05:06:21.864Z,89.41
2023-10-10T05:07:21.845Z,89.31
2023-10-10T05:08:22.004Z,89.51
2023-10-10T05:09:21.815Z,89.31
2023-10-10T05:10:21.858Z,89.11
2023-10-10T05:11:21.813Z,89.41
2023-10-10T05:12:21.786Z,89.31
2023-10-10T05:13:21.755Z,89.41
2023-10-10T05:14:21.800Z,89.61
2023-10-10T05:15:21.736Z,89.51
2023-10-10T05:16:21.838Z,89.41
2023-10-10T05:17:21.723Z,89.31
2023-10-10T05:18:21.713Z,89.61
2023-10-10T05:19:21.702Z,90.02
2023-10-10T05:20:21.687Z,89.01
2023-10-10T05:21:21.645Z,89.01
2023-10-10T05:22:21.646Z,89.01
2023-10-10T05:23:21.694Z,89.11
2023-10-10T05:24:21.624Z,89.11
2023-10-10T05:25:21.597Z,89.31
2023-10-10T05:26:21.643Z,89.72
2023-10-10T05:27:21.576Z,89.61
2023-10-10T05:28:21.582Z,88.80
2023-10-10T05:29:21.599Z,88.20
2023-10-10T05:30:21.535Z,88.60
2023-10-10T05:31:21.526Z,88.90
2023-10-10T05:32:21.524Z,89.01
2023-10-10T05:33:21.568Z,88.70
2023-10-10T05:34:21.498Z,88.49
2023-10-10T05:35:21.486Z,88.49
2023-10-10T05:36:21.468Z,88.49
2023-10-10T05:37:21.608Z,89.21
2023-10-10T05:38:25.813Z,89.21
2023-10-10T05:39:21.420Z,88.80
2023-10-10T05:40:21.581Z,88.80
2023-10-10T05:41:21.524Z,89.01
2023-10-10T05:42:21.522Z,89.11
2023-10-10T05:43:21.916Z,89.92
2023-10-10T05:44:21.422Z,90.42
2023-10-10T05:45:21.329Z,90.32
2023-10-10T05:46:21.362Z,90.12
2023-10-10T05:47:21.320Z,89.81
2023-10-10T05:48:21.369Z,89.81
2023-10-10T05:49:21.275Z,89.51
2023-10-10T05:50:21.321Z,89.31
2023-10-10T05:51:21.282Z,89.21
2023-10-10T05:52:21.256Z,89.31
2023-10-10T05:53:21.219Z,89.11
2023-10-10T05:54:21.218Z,89.11
2023-10-10T05:55:21.203Z,89.11
2023-10-10T05:56:21.341Z,89.37
2023-10-10T05:57:21.162Z,89.57
2023-10-10T05:58:21.160Z,89.57
2023-10-10T05:59:21.185Z,90.58
2023-10-10T06:00:21.158Z,90.79
2023-10-10T06:01:21.193Z,90.58
2023-10-10T06:02:21.134Z,90.99
2023-10-10T06:03:21.144Z,90.79
2023-10-10T06:04:21.132Z,90.48
2023-10-10T06:05:21.254Z,90.38
2023-10-10T06:06:21.062Z,90.08
2023-10-10T06:07:21.111Z,90.38
2023-10-10T06:08:21.097Z,90.18
2023-10-10T06:09:21.028Z,90.58
2023-10-10T06:10:21.042Z,90.48
2023-10-10T06:11:21.014Z,90.69
2023-10-10T06:12:20.981Z,90.58
2023-10-10T06:13:20.957Z,90.89
2023-10-10T06:14:21.034Z,90.89
2023-10-10T06:15:20.978Z,90.69
2023-10-10T06:16:21.021Z,90.38
2023-10-10T06:17:20.964Z,90.48
2023-10-10T06:18:20.963Z,90.18
2023-10-10T06:19:20.966Z,90.18
2023-10-10T06:20:20.924Z,89.98
2023-10-10T06:21:20.863Z,89.57
2023-10-10T06:22:20.845Z,89.47
2023-10-10T06:23:20.871Z,89.37
2023-10-10T06:24:20.826Z,89.26
2023-10-10T06:25:20.831Z,90.28
2023-10-10T06:26:20.825Z,90.64
2023-10-10T06:27:20.813Z,90.75
2023-10-10T06:28:20.769Z,90.54
2023-10-10T06:29:20.783Z,90.54
2023-10-10T06:30:20.730Z,90.54
2023-10-10T06:31:21.525Z,90.64
2023-10-10T06:32:20.732Z,90.75
2023-10-10T06:33:20.784Z,90.95
2023-10-10T06:34:21.498Z,91.25
2023-10-10T06:35:20.691Z,91.55
2023-10-10T06:36:20.645Z,91.75
2023-10-10T06:37:20.647Z,91.86
2023-10-10T06:38:20.701Z,92.16
2023-10-10T06:39:20.624Z,92.47
2023-10-10T06:40:20.597Z,92.57
2023-10-10T06:41:20.638Z,92.67
2023-10-10T06:42:20.606Z,92.67
2023-10-10T06:43:20.572Z,92.77
2023-10-10T06:44:20.764Z,92.77
2023-10-10T06:45:20.549Z,92.87
2023-10-10T06:46:20.530Z,93.18
2023-10-10T06:47:20.579Z,93.23
2023-10-10T06:48:20.547Z,93.13
2023-10-10T06:49:20.490Z,93.18
2023-10-10T06:50:20.493Z,93.13
2023-10-10T06:51:20.496Z,93.27
2023-10-10T06:52:20.466Z,93.38
2023-10-10T06:53:20.491Z,93.23
2023-10-10T06:54:20.416Z,93.23
2023-10-10T06:55:20.408Z,93.23
2023-10-10T06:56:20.433Z,93.54
2023-10-10T06:57:20.380Z,93.94
2023-10-10T06:58:20.407Z,94.04
2023-10-10T06:59:20.419Z,94.04
2023-10-10T07:00:20.359Z,94.14
2023-10-10T07:01:20.659Z,94.04
2023-10-10T07:02:20.380Z,93.84
2023-10-10T07:03:20.493Z,93.54
2023-10-10T07:04:20.406Z,93.33
2023-10-10T07:05:20.678Z,93.13
2023-10-10T07:06:20.275Z,93.33
2023-10-10T07:07:20.264Z,93.33
2023-10-10T07:08:20.348Z,93.33
2023-10-10T07:09:20.257Z,93.13
2023-10-10T07:10:20.220Z,93.13
2023-10-10T07:11:20.234Z,93.23
2023-10-10T07:12:20.196Z,93.33
2023-10-10T07:13:20.208Z,93.23
2023-10-10T07:14:20.239Z,93.13
2023-10-10T07:15:20.159Z,93.13
2023-10-10T07:16:20.203Z,93.43
2023-10-10T07:17:20.141Z,93.63
2023-10-10T07:18:20.123Z,93.54
2023-10-10T07:19:20.103Z,93.29
2023-10-10T07:20:20.121Z,93.39
2023-10-10T07:21:20.049Z,93.29
2023-10-10T07:22:20.053Z,93.19
2023-10-10T07:23:20.070Z,93.19
2023-10-10T07:24:20.063Z,93.19
2023-10-10T07:25:20.032Z,92.99
2023-10-10T07:26:20.765Z,92.99
2023-10-10T07:27:20.033Z,92.68
2023-10-10T07:28:19.989Z,92.58
2023-10-10T07:29:19.975Z,92.38
2023-10-10T07:30:19.977Z,92.24
2023-10-10T07:31:20.082Z,92.24
2023-10-10T07:32:20.063Z,92.44
2023-10-10T07:33:19.956Z,92.64
2023-10-10T07:34:19.927Z,92.64
2023-10-10T07:35:19.906Z,92.64
2023-10-10T07:36:19.865Z,92.54
2023-10-10T07:37:19.848Z,92.54
2023-10-10T07:38:19.898Z,92.29
2023-10-10T07:39:19.864Z,92.09
2023-10-10T07:40:19.827Z,91.78
2023-10-10T07:41:19.830Z,91.69
2023-10-10T07:42:19.786Z,91.58
2023-10-10T07:43:19.814Z,91.49
2023-10-10T07:44:19.817Z,91.38
2023-10-10T07:45:19.742Z,91.49
2023-10-10T07:46:19.799Z,91.49
2023-10-10T07:47:19.775Z,91.44
2023-10-10T07:48:19.770Z,91.14
2023-10-10T07:49:19.704Z,90.94
2023-10-10T07:50:19.770Z,90.79
2023-10-10T07:51:19.670Z,90.75
2023-10-10T07:52:19.666Z,90.24
2023-10-10T07:53:19.692Z,89.79
2023-10-10T07:54:19.642Z,89.59
2023-10-10T07:55:19.622Z,89.70
2023-10-10T07:56:19.641Z,89.70
2023-10-10T07:57:19.586Z,89.45
2023-10-10T07:58:19.579Z,89.15
2023-10-10T07:59:19.589Z,88.45
2023-10-10T08:00:19.626Z,88.34
2023-10-10T08:01:19.585Z,88.14
2023-10-10T08:02:19.567Z,87.84
2023-10-10T08:03:19.640Z,87.34
2023-10-10T08:04:19.779Z,87.03
2023-10-10T08:05:19.571Z,86.83
2023-10-10T08:06:19.501Z,86.69
2023-10-10T08:07:19.489Z,86.58
2023-10-10T08:08:19.477Z,86.15
2023-10-10T08:09:19.601Z,85.94
2023-10-10T08:10:19.440Z,85.40
2023-10-10T08:11:19.428Z,85.30
2023-10-10T08:12:19.443Z,85.46
2023-10-10T08:13:19.380Z,85.46
2023-10-10T08:14:19.548Z,85.42
2023-10-10T08:15:19.380Z,85.02
2023-10-10T08:16:19.356Z,84.61
2023-10-10T08:17:19.437Z,84.61
2023-10-10T08:18:19.377Z,84.31
2023-10-10T08:19:19.302Z,84.17
2023-10-10T08:20:19.372Z,82.97
2023-10-10T08:21:19.277Z,82.56
2023-10-10T08:22:19.289Z,82.86
2023-10-10T08:23:19.279Z,82.86
2023-10-10T08:24:19.249Z,82.26
2023-10-10T08:25:19.232Z,82.52
2023-10-10T08:26:19.668Z,80.31
2023-10-10T08:27:19.184Z,80.31
2023-10-10T08:28:19.198Z,80.21
2023-10-10T08:29:19.192Z,81.07
2023-10-10T08:30:19.176Z,81.48
2023-10-10T08:32:29.291Z,80.90
2023-10-10T08:33:29.290Z,80.70
2023-10-10T08:34:29.230Z,79.05
2023-10-10T08:35:29.241Z,79.25
2023-10-10T08:36:29.192Z,78.81
2023-10-10T08:37:29.193Z,78.42
2023-10-10T08:38:29.205Z,78.78
2023-10-10T08:39:29.181Z,78.08
2023-10-10T08:40:29.150Z,78.48
2023-10-10T08:41:29.188Z,78.54
2023-10-10T08:42:29.117Z,77.54
2023-10-10T08:43:29.193Z,77.74
2023-10-10T08:44:29.114Z,77.28
2023-10-10T08:45:29.123Z,77.28
2023-10-10T08:46:29.111Z,76.17
2023-10-10T08:47:29.065Z,77.17
2023-10-10T08:48:29.093Z,77.28
2023-10-10T08:49:29.069Z,77.37
2023-10-10T08:50:29.059Z,77.67
2023-10-10T08:51:28.997Z,77.87
2023-10-10T08:52:28.992Z,77.48
2023-10-10T08:53:29.030Z,77.78
2023-10-10T08:54:29.001Z,78.08
2023-10-10T08:55:29.010Z,77.04
2023-10-10T08:56:28.962Z,76.64
2023-10-10T08:57:28.930Z,77.04
2023-10-10T08:58:28.918Z,76.74
2023-10-10T08:59:28.904Z,76.50
2023-10-10T09:00:28.996Z,76.70
2023-10-10T09:01:28.910Z,76.06
2023-10-10T09:02:28.887Z,74.56
2023-10-10T09:03:28.931Z,74.56
2023-10-10T09:04:28.858Z,72.53
2023-10-10T09:05:28.883Z,73.22
2023-10-10T09:06:28.804Z,72.83
2023-10-10T09:07:28.809Z,72.83
2023-10-10T09:08:29.004Z,74.03
2023-10-10T09:09:28.771Z,74.79
2023-10-10T09:10:28.767Z,73.89
2023-10-10T09:11:28.786Z,73.19
2023-10-10T09:12:28.727Z,72.26
2023-10-10T09:13:28.720Z,71.92
2023-10-10T09:14:28.809Z,72.09
2023-10-10T09:15:28.722Z,71.36
2023-10-10T09:16:28.708Z,71.02
2023-10-10T09:17:28.739Z,70.59
2023-10-10T09:18:28.712Z,69.46
2023-10-10T09:19:28.644Z,69.36
2023-10-10T09:20:28.652Z,68.76
2023-10-10T09:21:28.622Z,67.73
2023-10-10T09:22:28.602Z,67.73
2023-10-10T09:23:28.648Z,68.46
2023-10-10T09:24:28.582Z,68.33
2023-10-10T09:25:28.583Z,67.36
2023-10-10T09:26:28.604Z,67.36
2023-10-10T09:27:28.597Z,67.96
2023-10-10T09:28:28.501Z,66.47
2023-10-10T09:29:28.503Z,66.70
2023-10-10T09:30:28.506Z,68.30
2023-10-10T09:31:28.465Z,68.60
2023-10-10T09:32:28.546Z,68.49
2023-10-10T09:33:28.697Z,68.30
2023-10-10T09:34:28.432Z,67.30
2023-10-10T09:35:28.523Z,67.60
2023-10-10T09:36:28.414Z,67.80
2023-10-10T09:37:28.399Z,67.77
2023-10-10T09:38:28.469Z,68.07
2023-10-10T09:39:28.406Z,67.66
2023-10-10T09:40:28.350Z,66.67
2023-10-10T09:41:28.410Z,66.70
2023-10-10T09:42:28.318Z,67.30
2023-10-10T09:43:28.312Z,67.86
2023-10-10T09:44:28.357Z,67.96
2023-10-10T09:45:28.322Z,65.67
2023-10-10T09:46:28.330Z,66.97
2023-10-10T09:47:28.321Z,66.64
2023-10-10T09:48:28.318Z,66.64
2023-10-10T09:49:28.238Z,65.51
2023-10-10T09:50:28.211Z,66.01
2023-10-10T09:51:28.196Z,65.61
2023-10-10T09:52:28.220Z,66.20
2023-10-10T09:53:28.224Z,66.20
2023-10-10T09:54:28.155Z,65.91
2023-10-10T09:55:28.140Z,66.01
2023-10-10T09:56:28.171Z,64.91
2023-10-10T09:57:28.200Z,65.61
2023-10-10T09:58:28.115Z,65.41
2023-10-10T09:59:28.111Z,65.74
2023-10-10T10:00:28.075Z,65.54
2023-10-10T10:01:28.116Z,66.17
2023-10-10T10:02:28.149Z,66.37
2023-10-10T10:03:28.796Z,65.80
2023-10-10T10:04:28.071Z,66.20
2023-10-10T10:05:28.083Z,67.93
2023-10-10T10:06:27.998Z,67.33
2023-10-10T10:07:28.009Z,67.03
2023-10-10T10:08:28.050Z,65.94
2023-10-10T10:09:27.964Z,65.83
2023-10-10T10:10:27.966Z,66.63
2023-10-10T10:11:27.973Z,66.47
2023-10-10T10:12:27.926Z,67.16
2023-10-10T10:13:27.922Z,67.36
2023-10-10T10:14:28.358Z,67.26
2023-10-10T10:15:27.896Z,67.19
2023-10-10T10:16:27.902Z,67.80
2023-10-10T10:17:27.926Z,67.76
2023-10-10T10:18:28.312Z,67.46
2023-10-10T10:19:27.839Z,66.73
2023-10-10T10:20:27.864Z,66.63
2023-10-10T10:21:27.822Z,67.10
2023-10-10T10:22:27.813Z,65.77
2023-10-10T10:23:27.914Z,65.77
2023-10-10T10:24:27.787Z,65.47
2023-10-10T10:25:27.785Z,65.05
2023-10-10T10:26:27.802Z,64.25
2023-10-10T10:27:27.723Z,63.45
2023-10-10T10:28:27.717Z,63.55
2023-10-10T10:29:27.730Z,64.72
2023-10-10T10:30:27.702Z,64.81
2023-10-10T10:31:27.705Z,64.12
2023-10-10T10:32:27.673Z,64.12
2023-10-10T10:33:27.692Z,63.79
2023-10-10T10:34:27.652Z,63.79
2023-10-10T10:35:27.686Z,63.19
2023-10-10T10:36:27.616Z,62.86
2023-10-10T10:37:27.596Z,63.26
2023-10-10T10:38:27.625Z,63.16
2023-10-10T10:39:27.613Z,62.66
2023-10-10T10:40:27.573Z,64.25
2023-10-10T10:41:27.569Z,62.83
2023-10-10T10:42:27.552Z,62.46
2023-10-10T10:43:27.574Z,62.07
2023-10-10T10:44:27.542Z,61.77
2023-10-10T10:45:27.569Z,61.77
2023-10-10T10:46:27.504Z,62.56
2023-10-10T10:47:27.540Z,61.87
2023-10-10T10:48:27.598Z,62.23
2023-10-10T10:49:27.444Z,62.43
2023-10-10T10:50:27.443Z,61.74
2023-10-10T10:51:27.423Z,61.34
2023-10-10T10:52:27.385Z,61.24
2023-10-10T10:53:27.509Z,60.84
2023-10-10T10:54:27.375Z,62.04
2023-10-10T10:55:27.380Z,61.80
2023-10-10T10:56:27.390Z,61.61
2023-10-10T10:57:39.212Z,60.82
2023-10-10T10:58:28.332Z,61.11
2023-10-10T10:59:27.352Z,61.31
2023-10-10T11:00:27.336Z,60.94
2023-10-10T11:01:27.384Z,60.94
2023-10-10T11:02:27.309Z,61.11
2023-10-10T11:03:27.345Z,59.92
2023-10-10T11:04:27.255Z,61.01
2023-10-10T11:05:27.278Z,60.61
2023-10-10T11:06:28.372Z,59.92
2023-10-10T11:07:27.682Z,60.71
2023-10-10T11:08:27.226Z,60.14
2023-10-10T11:09:27.205Z,60.25
2023-10-10T11:10:32.621Z,60.87
2023-10-10T11:11:28.803Z,60.87
2023-10-10T11:12:28.548Z,61.20
2023-10-10T11:13:27.106Z,61.00
2023-10-10T11:14:27.112Z,61.40
2023-10-10T11:15:27.090Z,61.93
2023-10-10T11:16:27.137Z,62.82
2023-10-10T11:17:27.224Z,62.23
2023-10-10T11:18:27.144Z,62.82
2023-10-10T11:19:27.042Z,63.42
2023-10-10T11:20:27.077Z,62.82
2023-10-10T11:21:27.032Z,62.13
2023-10-10T11:22:27.009Z,61.33
2023-10-10T11:23:27.037Z,61.96
2023-10-10T11:24:26.984Z,62.26
2023-10-10T11:25:26.948Z,62.26
2023-10-10T11:26:27.002Z,62.95
2023-10-10T11:27:26.935Z,62.65
2023-10-10T11:28:26.928Z,62.92
2023-10-10T11:29:26.955Z,62.42
2023-10-10T11:30:26.906Z,62.92
2023-10-10T11:31:26.898Z,62.82
2023-10-10T11:32:26.968Z,63.59
2023-10-10T11:33:26.863Z,63.19
2023-10-10T11:34:26.851Z,62.89
2023-10-10T11:35:26.967Z,60.60
2023-10-10T11:36:26.859Z,61.40
2023-10-10T11:37:26.821Z,61.50
2023-10-10T11:38:26.826Z,61.69
2023-10-10T11:39:26.786Z,61.99
2023-10-10T11:40:26.794Z,62.10
2023-10-10T11:41:26.800Z,61.60
2023-10-10T11:42:26.753Z,62.40
2023-10-10T11:43:26.714Z,62.46
2023-10-10T11:44:26.781Z,62.46
2023-10-10T11:45:26.789Z,63.03
2023-10-10T11:46:26.731Z,62.43
2023-10-10T11:47:26.730Z,62.10
2023-10-10T11:48:26.722Z,58.92
2023-10-10T11:49:26.662Z,60.82
2023-10-10T11:50:26.642Z,60.52
2023-10-10T11:51:26.600Z,58.92
2023-10-10T11:52:26.596Z,60.82
2023-10-10T11:53:26.924Z,61.31
2023-10-10T11:54:26.903Z,60.31
2023-10-10T11:55:26.551Z,59.82
2023-10-10T11:56:26.633Z,59.03
2023-10-10T11:57:26.543Z,59.42
2023-10-10T11:58:26.521Z,59.32
2023-10-10T11:59:26.560Z,59.75
2023-10-10T12:00:27.912Z,60.35
2023-10-10T12:01:28.738Z,60.94
2023-10-10T12:02:26.522Z,60.57
2023-10-10T12:03:26.526Z,60.97
2023-10-10T12:04:26.496Z,61.07
2023-10-10T12:05:26.460Z,61.57
2023-10-10T12:06:26.422Z,61.37
2023-10-10T12:07:26.412Z,61.47
2023-10-10T12:08:26.442Z,61.67
2023-10-10T12:09:26.417Z,61.27
2023-10-10T12:10:26.377Z,61.67
2023-10-10T12:11:26.392Z,61.57
2023-10-10T12:12:26.549Z,61.27
2023-10-10T12:13:26.362Z,61.50
2023-10-10T12:14:26.321Z,62.19
2023-10-10T12:15:26.311Z,62.59
2023-10-10T12:16:26.600Z,62.29
2023-10-10T12:17:26.325Z,61.50
2023-10-10T12:18:26.319Z,61.40
2023-10-10T12:19:26.229Z,61.33
2023-10-10T12:20:26.249Z,61.43
2023-10-10T12:21:26.215Z,61.55
2023-10-10T12:22:26.221Z,61.76
2023-10-10T12:23:26.222Z,61.55
2023-10-10T12:24:26.198Z,61.99
2023-10-10T12:25:26.162Z,62.08
2023-10-10T12:26:26.229Z,63.08
2023-10-10T12:27:26.137Z,64.31
2023-10-10T12:28:26.140Z,63.01
2023-10-10T12:29:26.252Z,63.51
2023-10-10T12:30:26.098Z,63.71
2023-10-10T12:31:26.227Z,63.54
2023-10-10T12:32:26.117Z,63.54
2023-10-10T12:33:26.209Z,63.94
2023-10-10T12:34:26.035Z,64.14
2023-10-10T12:35:26.064Z,64.47
2023-10-10T12:36:26.062Z,65.56
2023-10-10T12:37:26.015Z,65.97
2023-10-10T12:38:26.111Z,65.67
2023-10-10T12:39:26.013Z,66.06
2023-10-10T12:40:25.972Z,66.96
2023-10-10T12:41:26.028Z,66.77
2023-10-10T12:42:25.978Z,66.17
2023-10-10T12:43:25.944Z,66.17
2023-10-10T12:44:25.962Z,66.33
2023-10-10T12:45:25.904Z,66.63
2023-10-10T12:46:26.008Z,67.03
2023-10-10T12:47:25.869Z,66.24
2023-10-10T12:48:25.957Z,65.73
2023-10-10T12:49:25.835Z,63.91
2023-10-10T12:50:25.868Z,63.88
2023-10-10T12:51:25.881Z,64.28
2023-10-10T12:52:25.829Z,65.08
2023-10-10T12:53:25.785Z,64.87